Time;durP1;ratioP1;P1;durP2;ratioP2;P2;SDS_P1;SDS_P2;PMS_P1;PMS_P2;Temp;Humidity;BMP_temperature;BMP_pressure;BME280_temperature;BME280_humidity;BME280_pressure;Samples;Min_cycle;Max_cycle;Signal;HPM_P1;HPM_P2
2023/01/29 00:01:06;;;;;;;3.37;3.03;;;;;;;3.42;100.00;-23911.69;5014223;28;20180;-75
2023/01/29 00:03:33;;;;;;;7.40;3.03;;;;;;;3.45;100.00;-23912.56;5014875;28;20195;-74
2023/01/29 00:05:59;;;;;;;6.30;3.23;;;;;;;3.36;100.00;-23910.13;5015205;28;20676;-76
2023/01/29 00:08:26;;;;;;;3.57;2.63;;;;;;;3.49;100.00;-23913.69;5015046;28;20253;-75
2023/01/29 00:10:51;;;;;;;5.27;2.80;;;;;;;3.11;100.00;-23903.00;5015082;28;20309;-75
2023/01/29 00:13:17;;;;;;;5.33;3.07;;;;;;;3.00;100.00;-23899.88;5013674;28;20315;-73
2023/01/29 00:15:51;;;;;;;6.43;3.07;;;;;;;2.79;100.00;-23894.00;5013503;28;20202;-75
2023/01/29 00:18:17;;;;;;;3.00;2.37;;;;;;;3.25;100.00;-23907.00;5015059;28;20186;-73
2023/01/29 00:20:42;;;;;;;8.20;2.90;;;;;;;3.20;100.00;-23905.56;5013506;28;20188;-72
2023/01/29 00:23:08;;;;;;;4.60;3.33;;;;;;;2.92;100.00;-23897.72;5016984;28;20275;-75
2023/01/29 00:25:33;;;;;;;2.53;2.30;;;;;;;3.43;100.00;-23912.13;5020390;28;20267;-74
2023/01/29 00:27:59;;;;;;;3.67;3.10;;;;;;;2.95;100.00;-23898.44;5014609;28;20315;-74
2023/01/29 00:30:24;;;;;;;4.20;3.00;;;;;;;3.26;100.00;-23907.28;5014397;28;20265;-76
2023/01/29 00:32:49;;;;;;;5.23;3.03;;;;;;;3.39;100.00;-23910.97;5014450;28;20176;-73
2023/01/29 00:35:15;;;;;;;3.17;2.87;;;;;;;3.34;100.00;-23909.41;5014523;28;20563;-75
2023/01/29 00:37:40;;;;;;;4.03;2.20;;;;;;;3.28;100.00;-23907.72;5014718;28;20261;-74
2023/01/29 00:40:06;;;;;;;5.37;3.43;;;;;;;2.79;100.00;-23893.88;5014658;28;20285;-77
2023/01/29 00:45:15;;;;;;;2.93;2.63;;;;;;;3.01;100.00;-23900.28;5014645;28;20172;-76
2023/01/29 00:47:41;;;;;;;3.97;2.83;;;;;;;3.32;100.00;-23909.00;5013283;28;20560;-75
2023/01/29 00:50:10;;;;;;;3.13;2.57;;;;;;;3.16;100.00;-23904.28;5014874;28;20183;-76
2023/01/29 00:52:36;;;;;;;4.60;2.63;;;;;;;2.96;100.00;-23898.72;5014181;28;20209;-75
2023/01/29 00:55:03;;;;;;;5.03;2.23;;;;;;;3.14;100.00;-23903.84;5012744;28;20270;-75
2023/01/29 00:57:31;;;;;;;5.50;3.10;;;;;;;3.36;100.00;-23910.00;5013792;28;20208;-74
2023/01/29 00:59:56;;;;;;;4.20;2.60;;;;;;;2.83;100.00;-23895.16;5014386;28;20164;-76
2023/01/29 01:05:12;;;;;;;3.17;2.63;;;;;;;2.97;100.00;-23899.16;5014416;28;20225;-75
2023/01/29 01:07:39;;;;;;;2.97;2.67;;;;;;;3.03;100.00;-23900.88;5014617;28;20173;-76
2023/01/29 01:10:20;;;;;;;6.33;3.10;;;;;;;3.28;100.00;-23907.72;5012910;28;20161;-75
2023/01/29 01:12:50;;;;;;;4.00;2.33;;;;;;;3.25;100.00;-23907.00;5013734;28;20695;-77
2023/01/29 01:15:16;;;;;;;3.40;2.87;;;;;;;2.85;100.00;-23895.72;5013974;28;20171;-79
2023/01/29 01:17:42;;;;;;;8.33;4.17;;;;;;;3.10;100.00;-23902.84;5013399;28;20188;-74
2023/01/29 01:20:08;;;;;;;5.03;2.97;;;;;;;2.82;100.00;-23894.72;5013609;28;20703;-76
2023/01/29 01:22:34;;;;;;;2.80;2.50;;;;;;;3.09;100.00;-23902.56;5013598;28;20184;-75
2023/01/29 01:25:00;;;;;;;4.97;2.57;;;;;;;3.16;100.00;-23904.28;5014099;28;20184;-75
2023/01/29 01:27:25;;;;;;;3.00;2.63;;;;;;;3.19;100.00;-23905.28;5013559;28;20184;-74
2023/01/29 01:29:51;;;;;;;5.07;3.33;;;;;;;2.97;100.00;-23899.00;5013675;28;20176;-76
2023/01/29 01:32:16;;;;;;;2.47;2.27;;;;;;;2.89;100.00;-23896.72;5013579;28;20200;-73
2023/01/29 01:34:43;;;;;;;3.70;2.50;;;;;;;3.29;100.00;-23908.13;5013288;28;20565;-75
2023/01/29 01:37:09;;;;;;;4.03;3.13;;;;;;;2.94;100.00;-23898.28;5011921;28;20207;-74
2023/01/29 01:39:34;;;;;;;4.23;2.83;;;;;;;3.32;100.00;-23908.84;5019437;28;20187;-75
2023/01/29 01:41:59;;;;;;;6.30;2.30;;;;;;;2.81;100.00;-23894.44;5032337;28;20187;-74
2023/01/29 01:44:54;;;;;;;2.43;2.23;;;;;;;3.26;100.00;-23907.28;5032614;28;20258;-76
2023/01/29 01:47:26;;;;;;;2.80;2.60;;;;;;;2.96;100.00;-23898.72;5030084;28;20167;-76
2023/01/29 01:49:53;;;;;;;4.57;2.50;;;;;;;3.35;100.00;-23909.69;5019939;28;20544;-74
2023/01/29 01:52:19;;;;;;;2.43;2.13;;;;;;;3.16;100.00;-23904.44;5012631;28;20544;-73
2023/01/29 01:54:45;;;;;;;5.87;2.83;;;;;;;3.15;100.00;-23904.00;5012633;28;20262;-75
2023/01/29 01:57:17;;;;;;;3.30;2.47;;;;;;;2.81;100.00;-23894.44;5012703;28;20698;-73
2023/01/29 01:59:48;;;;;;;4.83;3.13;;;;;;;3.20;100.00;-23905.56;5012898;28;20168;-75
2023/01/29 02:10:38;;;;;;;4.10;2.60;;;;;;;3.55;100.00;-23915.53;5012409;28;20175;-76
2023/01/29 02:13:06;;;;;;;3.70;2.77;;;;;;;3.35;100.00;-23909.69;5012963;28;20231;-75
2023/01/29 02:15:32;;;;;;;5.10;3.47;;;;;;;3.05;100.00;-23901.28;5012250;28;20176;-75
2023/01/29 02:17:57;;;;;;;5.93;3.27;;;;;;;3.34;100.00;-23909.56;5012273;28;20214;-75
2023/01/29 02:20:27;;;;;;;3.83;2.67;;;;;;;3.17;100.00;-23904.72;5012546;28;20184;-73
2023/01/29 02:23:00;;;;;;;3.10;2.07;;;;;;;3.43;100.00;-23912.13;5012622;28;20177;-73
2023/01/29 02:25:57;;;;;;;6.23;3.13;;;;;;;3.06;100.00;-23901.72;5012811;28;20258;-72
2023/01/29 02:29:21;;;;;;;3.07;2.27;;;;;;;3.64;100.00;-23917.81;5013126;28;20211;-74
2023/01/29 02:31:55;;;;;;;4.20;2.53;;;;;;;3.49;100.00;-23913.69;5012557;28;20605;-76
2023/01/29 02:38:01;;;;;;;6.03;2.50;;;;;;;3.45;100.00;-23912.69;5012036;28;20689;-73
2023/01/29 02:40:43;;;;;;;4.37;2.70;;;;;;;3.45;100.00;-23912.69;5012435;28;20255;-75
2023/01/29 02:43:27;;;;;;;4.00;3.10;;;;;;;3.48;100.00;-23913.56;5011212;28;20175;-74
2023/01/29 02:45:59;;;;;;;5.20;3.07;;;;;;;3.59;100.00;-23916.41;5012216;28;20218;-74
2023/01/29 02:48:32;;;;;;;5.03;3.17;;;;;;;3.52;100.00;-23914.69;5018340;28;20168;-72
2023/01/29 02:51:04;;;;;;;4.63;2.97;;;;;;;3.46;100.00;-23912.84;5020833;28;20242;-73
2023/01/29 02:54:03;;;;;;;4.03;3.00;;;;;;;3.47;100.00;-23913.25;5012858;28;20172;-75
2023/01/29 02:56:54;;;;;;;8.17;3.03;;;;;;;3.42;100.00;-23911.84;5011817;28;20330;-75
2023/01/29 02:59:32;;;;;;;4.50;3.13;;;;;;;3.55;100.00;-23915.53;5012608;28;20183;-72
2023/01/29 03:02:12;;;;;;;3.77;2.77;;;;;;;3.34;100.00;-23909.41;5026570;28;20170;-75
2023/01/29 03:04:46;;;;;;;3.37;2.70;;;;;;;3.10;100.00;-23902.72;5034097;28;20168;-73
2023/01/29 03:07:39;;;;;;;4.80;3.50;;;;;;;2.97;100.00;-23899.00;5033379;28;20168;-73
2023/01/29 03:10:14;;;;;;;4.73;2.70;;;;;;;3.35;100.00;-23909.84;5014228;28;20238;-75
2023/01/29 03:12:40;;;;;;;4.40;3.37;;;;;;;3.18;100.00;-23905.00;5012499;28;20223;-73
2023/01/29 03:15:15;;;;;;;6.30;3.00;;;;;;;3.05;100.00;-23901.44;5010751;28;20738;-75
2023/01/29 03:17:52;;;;;;;4.07;2.83;;;;;;;3.29;100.00;-23908.00;5012228;28;20194;-75
2023/01/29 03:20:24;;;;;;;3.67;3.13;;;;;;;3.20;100.00;-23905.41;5012176;28;20198;-74
2023/01/29 03:22:54;;;;;;;7.67;3.43;;;;;;;3.32;100.00;-23909.00;5012235;28;20168;-73
2023/01/29 03:33:53;;;;;;;3.03;2.33;;;;;;;3.01;100.00;-23900.16;5014686;28;20666;-73
2023/01/29 03:36:36;;;;;;;3.70;2.77;;;;;;;3.07;100.00;-23902.00;5015623;28;20319;-74
2023/01/29 03:39:07;;;;;;;3.67;2.23;;;;;;;3.33;100.00;-23909.13;5015470;28;20175;-75
2023/01/29 03:41:37;;;;;;;4.10;2.30;;;;;;;3.41;100.00;-23911.41;5015773;28;20585;-73
2023/01/29 03:44:16;;;;;;;6.80;3.67;;;;;;;3.29;100.00;-23908.13;5014200;28;20246;-75
2023/01/29 03:47:22;;;;;;;3.37;3.07;;;;;;;3.28;100.00;-23907.84;5015868;28;20164;-73
2023/01/29 03:49:56;;;;;;;3.17;2.80;;;;;;;3.28;100.00;-23907.72;5015524;28;20627;-73
2023/01/29 03:52:36;;;;;;;4.20;2.90;;;;;;;3.24;100.00;-23906.56;5013897;28;20183;-75
2023/01/29 03:55:12;;;;;;;6.37;3.20;;;;;;;3.27;100.00;-23907.56;5015424;28;20555;-75
2023/01/29 03:57:52;;;;;;;2.40;2.00;;;;;;;3.39;100.00;-23910.84;5015628;28;20726;-75
2023/01/29 04:00:41;;;;;;;4.70;2.83;;;;;;;2.89;100.00;-23896.72;5015319;28;20164;-73
2023/01/29 04:03:15;;;;;;;2.33;2.10;;;;;;;3.31;100.00;-23908.72;5014995;28;20172;-73
2023/01/29 04:05:51;;;;;;;2.77;2.53;;;;;;;3.22;100.00;-23906.13;5015293;28;20199;-75
2023/01/29 04:08:25;;;;;;;2.87;2.07;;;;;;;2.76;100.00;-23893.00;5023233;28;20571;-73
2023/01/29 04:10:54;;;;;;;2.73;2.53;;;;;;;3.18;100.00;-23904.84;5015441;28;20180;-73
2023/01/29 04:13:20;;;;;;;4.10;2.37;;;;;;;2.94;100.00;-23898.16;5015434;28;20231;-76
2023/01/29 04:15:52;;;;;;;3.73;2.43;;;;;;;2.90;100.00;-23897.00;5014995;28;20538;-75
2023/01/29 04:18:17;;;;;;;3.53;2.53;;;;;;;3.29;100.00;-23908.13;5015402;28;20176;-75
2023/01/29 04:20:43;;;;;;;4.67;2.80;;;;;;;2.84;100.00;-23895.28;5014800;28;20536;-74
2023/01/29 04:23:24;;;;;;;2.90;2.07;;;;;;;3.24;100.00;-23906.56;5014781;28;20186;-74
2023/01/29 04:26:06;;;;;;;2.80;2.50;;;;;;;3.17;100.00;-23904.72;5014375;28;20179;-74
2023/01/29 04:28:47;;;;;;;3.43;2.67;;;;;;;3.22;100.00;-23906.13;5014841;28;20239;-76
2023/01/29 04:31:13;;;;;;;3.00;2.57;;;;;;;2.76;100.00;-23893.16;5014764;28;20203;-75
2023/01/29 04:34:03;;;;;;;6.10;2.67;;;;;;;3.20;100.00;-23905.41;5014737;28;20251;-74
2023/01/29 04:36:37;;;;;;;2.67;2.37;;;;;;;3.16;100.00;-23904.44;5014682;28;20291;-75
2023/01/29 04:39:16;;;;;;;3.43;2.40;;;;;;;3.17;100.00;-23904.72;5014654;28;20168;-75
2023/01/29 04:41:54;;;;;;;2.47;2.27;;;;;;;3.00;100.00;-23899.88;5014653;28;20633;-77
2023/01/29 04:44:28;;;;;;;2.70;2.33;;;;;;;2.93;100.00;-23897.88;5014401;28;20190;-74
2023/01/29 04:47:05;;;;;;;3.97;2.90;;;;;;;3.08;100.00;-23902.16;5013718;28;20187;-74
2023/01/29 04:50:02;;;;;;;9.20;2.17;;;;;;;3.19;100.00;-23905.28;5006417;28;20262;-76
2023/01/29 04:52:55;;;;;;;3.43;2.93;;;;;;;3.25;100.00;-23907.00;5014030;28;20330;-75
2023/01/29 04:55:58;;;;;;;2.80;2.47;;;;;;;3.10;100.00;-23902.84;5014668;28;20746;-73
2023/01/29 04:58:46;;;;;;;2.27;2.07;;;;;;;2.71;100.00;-23891.59;4992307;28;20194;-76
2023/01/29 05:01:15;;;;;;;3.90;2.60;;;;;;;2.51;100.00;-23886.16;4992169;28;20185;-73
2023/01/29 05:03:46;;;;;;;6.37;2.33;;;;;;;2.41;100.00;-23883.31;5005658;28;20630;-76
2023/01/29 05:06:13;;;;;;;4.77;2.17;;;;;;;3.00;100.00;-23899.88;5013861;28;20177;-74
2023/01/29 05:08:40;;;;;;;4.63;2.87;;;;;;;2.88;100.00;-23896.44;5014078;28;20647;-76
2023/01/29 05:11:06;;;;;;;2.20;1.80;;;;;;;2.92;100.00;-23897.72;5012089;28;20195;-76
2023/01/29 05:13:35;;;;;;;2.80;2.23;;;;;;;2.48;100.00;-23885.31;5013210;28;20286;-76
2023/01/29 05:16:12;;;;;;;7.20;3.00;;;;;;;2.73;100.00;-23892.31;5013073;28;20581;-73
2023/01/29 05:18:37;;;;;;;5.30;3.20;;;;;;;3.13;100.00;-23903.56;5013345;28;20247;-76
2023/01/29 05:21:06;;;;;;;4.33;2.70;;;;;;;2.88;100.00;-23896.44;5013108;28;20266;-76
2023/01/29 05:23:31;;;;;;;6.43;3.17;;;;;;;2.92;100.00;-23897.72;5013215;28;20176;-74
2023/01/29 05:25:57;;;;;;;5.73;3.33;;;;;;;2.80;100.00;-23894.16;5013333;28;20174;-73
2023/01/29 05:28:22;;;;;;;3.90;2.83;;;;;;;2.39;100.00;-23882.75;5012875;28;20172;-75
2023/01/29 05:30:53;;;;;;;4.90;2.70;;;;;;;2.54;100.00;-23886.88;5013179;28;20176;-75
2023/01/29 05:33:26;;;;;;;4.77;2.53;;;;;;;2.72;100.00;-23891.88;5011924;28;20180;-75
2023/01/29 05:35:51;;;;;;;3.67;2.67;;;;;;;2.69;100.00;-23891.16;5012931;28;20188;-75
2023/01/29 05:38:18;;;;;;;3.80;2.93;;;;;;;2.74;100.00;-23892.44;5012077;28;20175;-73
2023/01/29 05:40:44;;;;;;;4.90;3.47;;;;;;;2.82;100.00;-23894.88;5012615;28;20296;-74
2023/01/29 05:43:20;;;;;;;4.33;3.30;;;;;;;2.62;100.00;-23889.31;5011536;28;20275;-75
2023/01/29 05:45:52;;;;;;;4.37;3.07;;;;;;;3.06;100.00;-23901.72;5013762;28;20186;-74
2023/01/29 05:48:18;;;;;;;5.50;3.43;;;;;;;3.03;100.00;-23900.72;5013350;28;20259;-74
2023/01/29 05:50:43;;;;;;;5.10;3.67;;;;;;;2.67;100.00;-23890.72;5012952;28;20211;-76
2023/01/29 05:53:08;;;;;;;4.70;3.63;;;;;;;2.41;100.00;-23883.31;5020191;28;20183;-73
2023/01/29 05:55:34;;;;;;;5.67;3.30;;;;;;;2.95;100.00;-23898.44;5027883;28;20180;-73
2023/01/29 05:58:02;;;;;;;10.10;3.57;;;;;;;3.07;100.00;-23901.84;5017528;28;20179;-76
2023/01/29 06:00:28;;;;;;;4.57;2.60;;;;;;;2.61;100.00;-23889.03;5013076;28;20172;-75
2023/01/29 06:02:53;;;;;;;5.00;3.03;;;;;;;2.82;100.00;-23894.72;5013020;28;20545;-73
2023/01/29 06:05:19;;;;;;;4.30;2.73;;;;;;;3.03;100.00;-23900.88;5017418;28;20555;-75
2023/01/29 06:07:44;;;;;;;2.90;2.60;;;;;;;3.05;100.00;-23901.44;5016701;28;20235;-76
2023/01/29 06:10:12;;;;;;;4.80;2.80;;;;;;;2.96;100.00;-23898.72;5011116;28;20188;-74
2023/01/29 06:12:39;;;;;;;2.93;2.23;;;;;;;3.26;100.00;-23907.28;5012911;28;20323;-75
2023/01/29 06:15:04;;;;;;;7.47;2.87;;;;;;;3.07;100.00;-23902.00;5012862;28;20263;-75
2023/01/29 06:17:30;;;;;;;5.00;2.80;;;;;;;3.26;100.00;-23907.28;5012855;28;20742;-76
2023/01/29 06:19:55;;;;;;;3.33;2.57;;;;;;;3.01;100.00;-23900.16;5012890;28;20242;-73
2023/01/29 06:22:20;;;;;;;6.10;3.40;;;;;;;3.10;100.00;-23902.72;5012443;28;20267;-74
2023/01/29 06:24:46;;;;;;;2.03;1.90;;;;;;;3.28;100.00;-23907.84;5012453;28;20662;-76
2023/01/29 06:27:11;;;;;;;3.40;2.50;;;;;;;2.84;100.00;-23895.28;5012815;28;20182;-75
2023/01/29 06:29:37;;;;;;;7.23;3.10;;;;;;;3.29;100.00;-23908.00;5013096;28;20180;-75
2023/01/29 06:32:02;;;;;;;5.37;3.60;;;;;;;3.07;100.00;-23901.84;5011247;28;20183;-74
2023/01/29 06:34:28;;;;;;;3.23;2.90;;;;;;;3.10;100.00;-23902.84;5013465;28;20180;-72
2023/01/29 06:36:53;;;;;;;5.73;2.83;;;;;;;3.55;100.00;-23915.53;5012968;28;20235;-74
2023/01/29 06:39:18;;;;;;;3.30;2.40;;;;;;;3.18;100.00;-23904.84;5012794;28;20176;-75
2023/01/29 06:41:45;;;;;;;5.00;2.73;;;;;;;3.63;100.00;-23917.53;5020060;28;20187;-76
2023/01/29 06:44:10;;;;;;;7.43;3.13;;;;;;;3.38;100.00;-23910.69;5013304;28;20255;-75
2023/01/29 06:46:36;;;;;;;4.27;2.63;;;;;;;3.47;100.00;-23913.13;5013132;28;20176;-74
2023/01/29 06:49:01;;;;;;;5.57;2.90;;;;;;;3.50;100.00;-23913.97;5013164;28;20265;-75
2023/01/29 06:51:26;;;;;;;4.20;2.80;;;;;;;3.90;100.00;-23925.38;5013111;28;20176;-74
2023/01/29 06:53:54;;;;;;;3.73;2.30;;;;;;;3.77;100.00;-23921.69;5012598;28;20270;-76
2023/01/29 06:56:20;;;;;;;3.60;2.60;;;;;;;3.86;100.00;-23924.09;5013038;28;20286;-77
2023/01/29 06:58:46;;;;;;;4.47;2.57;;;;;;;3.50;100.00;-23914.13;5011319;28;20662;-74
2023/01/29 07:01:12;;;;;;;3.60;2.83;;;;;;;3.64;100.00;-23917.81;5012659;28;20180;-76
2023/01/29 07:03:37;;;;;;;4.27;2.70;;;;;;;3.23;100.00;-23906.44;5012031;28;20176;-76
2023/01/29 07:06:04;;;;;;;3.87;2.53;;;;;;;3.38;100.00;-23910.56;5010997;28;20191;-77
2023/01/29 07:08:30;;;;;;;3.67;2.83;;;;;;;3.83;100.00;-23923.25;5015155;28;20659;-76
2023/01/29 07:11:00;;;;;;;3.50;2.57;;;;;;;3.88;100.00;-23924.66;5016446;28;20180;-75
2023/01/29 07:13:25;;;;;;;5.00;2.70;;;;;;;3.94;100.00;-23926.53;5016562;28;20224;-77
2023/01/29 07:15:51;;;;;;;2.53;2.30;;;;;;;2.64;100.00;-23889.88;5016062;28;20203;-74
2023/01/29 07:18:16;;;;;;;3.47;2.77;;;;;;;3.60;100.00;-23916.69;5015923;28;20183;-74
2023/01/29 07:20:42;;;;;;;5.97;2.87;;;;;;;3.20;100.00;-23905.41;5015614;28;20168;-76
2023/01/29 07:23:14;;;;;;;3.10;2.50;;;;;;;3.80;100.00;-23922.53;5016390;28;20254;-76
2023/01/29 07:25:40;;;;;;;2.73;2.53;;;;;;;4.11;100.00;-23931.22;5016071;28;20190;-76
2023/01/29 07:28:06;;;;;;;4.27;2.10;;;;;;;3.85;100.00;-23923.94;5016111;28;20172;-77
2023/01/29 07:30:32;;;;;;;4.73;2.40;;;;;;;3.92;100.00;-23925.81;5015903;28;20182;-75
2023/01/29 07:33:05;;;;;;;2.20;2.00;;;;;;;4.16;100.00;-23932.63;5015306;28;20172;-75
2023/01/29 07:35:31;;;;;;;4.27;2.83;;;;;;;4.26;100.00;-23935.34;5015335;28;20168;-74
2023/01/29 07:37:57;;;;;;;2.53;2.17;;;;;;;3.91;100.00;-23925.53;5015334;28;20227;-74
2023/01/29 07:40:22;;;;;;;3.53;3.20;;;;;;;4.08;100.00;-23930.22;5014002;28;20298;-77
2023/01/29 07:42:47;;;;;;;3.07;2.40;;;;;;;4.26;100.00;-23935.50;5014783;28;20259;-77
2023/01/29 07:45:13;;;;;;;2.77;2.33;;;;;;;4.34;100.00;-23937.78;5013736;28;20188;-76
2023/01/29 07:47:38;;;;;;;8.50;2.50;;;;;;;4.47;100.00;-23941.19;5014836;28;20259;-76
2023/01/29 07:50:04;;;;;;;5.00;2.53;;;;;;;4.27;100.00;-23935.78;5014973;28;20176;-76
2023/01/29 07:52:32;;;;;;;4.10;2.63;;;;;;;4.45;100.00;-23940.91;5015033;28;20251;-76
2023/01/29 07:54:57;;;;;;;4.37;2.63;;;;;;;4.42;100.00;-23940.03;5015138;28;20176;-77
2023/01/29 07:57:23;;;;;;;2.53;2.33;;;;;;;4.65;100.00;-23946.31;5013379;28;20587;-76
2023/01/29 07:59:48;;;;;;;3.30;2.93;;;;;;;4.32;100.00;-23937.06;5015117;28;20168;-77
2023/01/29 08:02:14;;;;;;;1.97;1.83;;;;;;;4.77;100.00;-23949.72;5014068;28;20778;-76
2023/01/29 08:04:39;;;;;;;4.13;2.50;;;;;;;4.40;100.00;-23939.34;5023242;28;20683;-77
2023/01/29 08:07:05;;;;;;;3.00;2.70;;;;;;;3.93;100.00;-23926.09;5014713;28;20555;-74
2023/01/29 08:09:30;;;;;;;3.00;2.33;;;;;;;4.12;100.00;-23931.50;5014941;28;20581;-75
2023/01/29 08:11:56;;;;;;;3.27;2.60;;;;;;;4.34;100.00;-23937.78;5014709;28;20266;-79
2023/01/29 08:14:22;;;;;;;2.43;2.07;;;;;;;3.90;100.00;-23925.22;5014518;28;20562;-78
2023/01/29 08:16:48;;;;;;;3.13;2.50;;;;;;;4.07;100.00;-23929.94;5014281;28;20200;-75
2023/01/29 08:19:13;;;;;;;3.13;2.30;;;;;;;4.03;100.00;-23928.94;5014568;28;20198;-76
2023/01/29 08:21:39;;;;;;;12.87;2.57;;;;;;;4.20;100.00;-23933.78;5014525;28;20181;-73
2023/01/29 08:24:05;;;;;;;2.30;2.00;;;;;;;4.66;100.00;-23946.59;5014535;28;20168;-75
2023/01/29 08:26:30;;;;;;;2.97;2.50;;;;;;;4.81;100.00;-23950.84;5014868;28;20226;-76
2023/01/29 08:28:55;;;;;;;2.43;2.23;;;;;;;4.84;100.00;-23951.84;5014046;28;20165;-77
2023/01/29 08:31:21;;;;;;;3.77;2.83;;;;;;;4.68;100.00;-23947.16;5013177;28;20172;-77
2023/01/29 08:33:46;;;;;;;3.30;2.53;;;;;;;4.86;100.00;-23952.28;5021955;28;20179;-77
2023/01/29 08:36:12;;;;;;;2.10;1.90;;;;;;;4.44;100.00;-23940.63;5014478;28;20675;-75
2023/01/29 08:38:38;;;;;;;3.70;2.63;;;;;;;4.33;100.00;-23937.47;5013958;28;20661;-74
2023/01/29 08:41:04;;;;;;;2.33;2.07;;;;;;;4.68;100.00;-23947.16;5013685;28;20642;-74
2023/01/29 08:43:29;;;;;;;2.23;2.03;;;;;;;4.00;100.00;-23928.09;5012581;28;20218;-78
2023/01/29 08:45:55;;;;;;;3.87;2.40;;;;;;;4.80;100.00;-23950.72;5013612;28;20204;-76
2023/01/29 08:48:20;;;;;;;3.67;2.77;;;;;;;4.43;100.00;-23940.19;5014226;28;20176;-76
2023/01/29 08:50:45;;;;;;;2.80;2.17;;;;;;;4.63;100.00;-23945.75;5012244;28;20176;-77
2023/01/29 08:53:11;;;;;;;2.77;2.20;;;;;;;4.69;100.00;-23947.44;5013577;28;20168;-78
2023/01/29 08:55:40;;;;;;;9.90;2.07;;;;;;;4.72;100.00;-23948.31;5013932;28;20173;-74
2023/01/29 08:58:10;;;;;;;3.23;2.30;;;;;;;4.36;100.00;-23938.19;5014065;28;20196;-78
2023/01/29 09:00:36;;;;;;;2.20;2.00;;;;;;;4.64;100.00;-23946.03;5012367;28;20271;-76
2023/01/29 09:03:02;;;;;;;6.57;2.50;;;;;;;4.27;100.00;-23935.78;5013768;28;20188;-77
2023/01/29 09:05:28;;;;;;;2.70;2.50;;;;;;;4.61;100.00;-23945.16;5013616;28;20692;-76
2023/01/29 09:07:55;;;;;;;3.93;2.53;;;;;;;5.06;100.00;-23957.97;5013192;28;20262;-76
2023/01/29 09:10:21;;;;;;;3.70;2.60;;;;;;;5.07;100.00;-23958.13;5020756;28;20184;-75
2023/01/29 09:12:46;;;;;;;3.80;2.57;;;;;;;4.96;100.00;-23955.00;5012669;28;20281;-76
2023/01/29 09:15:12;;;;;;;5.20;3.50;;;;;;;4.88;100.00;-23952.84;5013830;28;20577;-74
2023/01/29 09:17:37;;;;;;;4.77;2.80;;;;;;;4.91;100.00;-23953.72;5013169;28;20204;-74
2023/01/29 09:20:05;;;;;;;3.17;2.30;;;;;;;4.74;100.00;-23948.88;5012617;28;20179;-77
2023/01/29 09:22:31;;;;;;;3.47;2.57;;;;;;;5.20;100.00;-23961.97;5013493;28;20172;-76
2023/01/29 09:24:56;;;;;;;3.57;2.73;;;;;;;5.34;100.00;-23965.78;5013610;28;20183;-76
2023/01/29 09:27:22;;;;;;;3.20;2.27;;;;;;;5.14;100.00;-23960.25;5013606;28;20160;-74
2023/01/29 09:29:47;;;;;;;2.87;2.50;;;;;;;5.44;100.00;-23968.63;5012465;28;20550;-77
2023/01/29 09:32:12;;;;;;;4.53;2.57;;;;;;;5.38;100.00;-23966.94;5012704;28;20295;-74
2023/01/29 09:34:38;;;;;;;2.53;2.33;;;;;;;4.98;100.00;-23955.56;5012675;28;20260;-73
2023/01/29 09:37:03;;;;;;;2.80;2.23;;;;;;;5.25;100.00;-23963.38;5012758;28;20200;-77
2023/01/29 09:39:29;;;;;;;4.73;3.20;;;;;;;5.48;100.00;-23969.63;5013114;28;20222;-74
2023/01/29 09:42:06;;;;;;;3.07;2.70;;;;;;;5.59;100.00;-23972.91;5014784;28;20180;-78
2023/01/29 09:44:53;;;;;;;3.63;2.70;;;;;;;5.68;100.00;-23975.47;5013169;28;20632;-76
2023/01/29 09:47:22;;;;;;;3.10;2.43;;;;;;;5.21;100.00;-23962.09;5012643;28;20238;-75
2023/01/29 09:50:22;;;;;;;2.53;2.33;;;;;;;5.70;100.00;-23975.88;5012639;28;20171;-74
2023/01/29 09:53:00;;;;;;;3.77;2.80;;;;;;;5.71;100.00;-23976.16;5017803;28;20595;-77
2023/01/29 09:55:28;;;;;;;3.77;2.37;;;;;;;5.36;100.00;-23966.22;5020536;28;20183;-75
2023/01/29 09:58:13;;;;;;;3.47;2.63;;;;;;;5.89;100.00;-23981.16;5011715;28;20697;-77
2023/01/29 10:00:42;;;;;;;4.30;3.13;;;;;;;5.75;100.00;-23977.31;5004821;28;20517;-76
2023/01/29 10:03:43;;;;;;;3.50;2.60;;;;;;;5.79;100.00;-23978.44;5020692;28;20663;-76
2023/01/29 10:06:19;;;;;;;3.40;2.43;;;;;;;5.72;100.00;-23976.59;5016157;28;20191;-75
2023/01/29 10:09:29;;;;;;;3.53;2.67;;;;;;;6.22;100.00;-23990.66;5012280;28;20191;-75
2023/01/29 10:12:28;;;;;;;1.97;1.83;;;;;;;6.16;100.00;-23988.97;5019440;28;20231;-75
2023/01/29 10:15:03;;;;;;;4.47;2.77;;;;;;;6.21;100.00;-23990.38;5007204;28;20184;-75
2023/01/29 10:17:47;;;;;;;3.40;2.70;;;;;;;6.00;100.00;-23984.41;5020149;28;20215;-77
2023/01/29 10:20:23;;;;;;;5.13;3.03;;;;;;;5.56;100.00;-23971.91;5038101;28;20195;-76
2023/01/29 10:22:48;;;;;;;3.47;3.00;;;;;;;6.05;100.00;-23985.69;5043998;28;20187;-76
2023/01/29 10:25:19;;;;;;;2.67;2.37;;;;;;;5.66;100.00;-23974.75;5036768;28;20218;-75
2023/01/29 10:27:50;;;;;;;2.97;2.07;;;;;;;5.90;100.00;-23981.44;5020145;28;20567;-74
2023/01/29 10:30:38;;;;;;;4.27;2.60;;;;;;;6.15;100.00;-23988.69;5016024;28;20647;-78
2023/01/29 10:33:05;;;;;;;3.30;2.00;;;;;;;6.24;100.00;-23990.94;5014692;28;20196;-75
2023/01/29 10:35:55;;;;;;;3.40;2.57;;;;;;;5.88;100.00;-23981.00;5019360;28;20194;-77
2023/01/29 10:38:32;;;;;;;4.47;2.90;;;;;;;6.15;100.00;-23988.53;5017905;28;20296;-77
2023/01/29 10:41:10;;;;;;;5.27;3.07;;;;;;;5.94;100.00;-23982.72;5010936;28;20180;-74
2023/01/29 10:43:37;;;;;;;4.17;2.87;;;;;;;6.37;100.00;-23994.78;5010132;28;20298;-75
2023/01/29 10:46:21;;;;;;;3.13;2.17;;;;;;;6.58;100.00;-24000.59;5010809;28;20192;-76
2023/01/29 10:49:07;;;;;;;3.13;2.53;;;;;;;6.54;100.00;-23999.47;5015186;28;20601;-75
2023/01/29 10:51:44;;;;;;;3.33;2.80;;;;;;;6.47;100.00;-23997.47;5020695;28;20187;-77
2023/01/29 10:54:48;;;;;;;3.67;2.30;;;;;;;6.09;100.00;-23986.97;5012791;28;20187;-76
2023/01/29 10:57:40;;;;;;;3.47;2.53;;;;;;;6.44;100.00;-23996.78;5011620;28;20200;-76
2023/01/29 11:00:22;;;;;;;3.63;2.60;;;;;;;6.17;100.00;-23989.25;5011912;28;20180;-76
2023/01/29 11:02:49;;;;;;;3.50;2.43;;;;;;;6.26;100.00;-23991.53;5017040;28;20563;-77
2023/01/29 11:05:25;;;;;;;2.73;2.33;;;;;;;6.30;100.00;-23992.66;5020046;28;20241;-75
2023/01/29 11:08:01;;;;;;;2.80;2.47;;;;;;;6.24;100.00;-23990.94;5017528;28;20183;-76
2023/01/29 11:10:29;;;;;;;3.90;2.90;;;;;;;5.93;100.00;-23982.28;5021752;28;20191;-77
2023/01/29 11:12:56;;;;;;;2.63;2.07;;;;;;;6.07;100.00;-23986.41;5017200;28;20603;-77
2023/01/29 11:15:27;;;;;;;3.63;2.60;;;;;;;6.54;100.00;-23999.47;5018381;28;20187;-77
2023/01/29 11:18:05;;;;;;;4.57;2.93;;;;;;;6.37;100.00;-23994.66;5017264;28;20203;-77
2023/01/29 11:20:33;;;;;;;5.50;2.97;;;;;;;6.33;100.00;-23993.66;5010208;28;20210;-74
2023/01/29 11:22:59;;;;;;;2.93;2.30;;;;;;;6.50;100.00;-23998.34;5018667;28;20192;-74
2023/01/29 11:25:26;;;;;;;3.20;2.40;;;;;;;6.42;100.00;-23996.22;5018490;28;20196;-76
2023/01/29 11:27:54;;;;;;;6.10;3.30;;;;;;;6.55;100.00;-23999.75;5020159;28;20588;-75
2023/01/29 11:30:29;;;;;;;3.37;2.60;;;;;;;6.22;100.00;-23990.53;5011590;28;20188;-77
2023/01/29 11:33:07;;;;;;;2.87;2.57;;;;;;;6.70;100.00;-24004.00;5020087;28;20187;-77
2023/01/29 11:35:34;;;;;;;4.53;2.67;;;;;;;6.42;100.00;-23996.22;5015443;28;20190;-75
2023/01/29 11:38:28;;;;;;;2.90;2.30;;;;;;;6.82;100.00;-24007.28;5021674;28;20207;-77
2023/01/29 11:41:15;;;;;;;2.67;2.30;;;;;;;6.88;100.00;-24009.13;5011081;28;20274;-76
2023/01/29 11:43:41;;;;;;;3.20;2.60;;;;;;;6.87;100.00;-24008.84;4995884;28;20191;-78
2023/01/29 11:46:13;;;;;;;3.87;2.80;;;;;;;6.92;100.00;-24010.13;5008762;28;20188;-78
2023/01/29 11:48:45;;;;;;;5.40;2.80;;;;;;;7.06;100.00;-24014.09;5014643;28;20191;-77
2023/01/29 11:51:21;;;;;;;3.53;2.53;;;;;;;6.68;100.00;-24003.44;5009682;28;20242;-77
2023/01/29 11:53:51;;;;;;;3.23;2.40;;;;;;;6.83;100.00;-24007.69;5006804;28;20683;-77
2023/01/29 11:56:28;;;;;;;2.80;2.50;;;;;;;7.16;100.00;-24016.78;5008247;28;20207;-78
2023/01/29 11:58:56;;;;;;;3.63;2.63;;;;;;;7.12;100.00;-24015.66;5008416;28;20191;-77
2023/01/29 12:01:38;;;;;;;2.57;2.33;;;;;;;6.80;100.00;-24006.84;5008167;28;20691;-77
2023/01/29 12:04:22;;;;;;;4.27;2.50;;;;;;;6.71;100.00;-24004.16;5009265;28;20601;-76
2023/01/29 12:06:51;;;;;;;4.33;2.93;;;;;;;6.75;100.00;-24005.44;5009514;28;20712;-76
2023/01/29 12:09:22;;;;;;;4.43;2.60;;;;;;;6.94;100.00;-24010.81;5008405;28;20713;-76